Time;durP1;ratioP1;P1;durP2;ratioP2;P2;SDS_P1;SDS_P2;PMS_P1;PMS_P2;Temp;Humidity;BMP_temperature;BMP_pressure;BME280_temperature;BME280_humidity;BME280_pressure;Samples;Min_cycle;Max_cycle;Signal;HPM_P1;HPM_P2
2021/06/26 00:01:51;;;;;;;8.65;4.78;;;17.90;99.90;;;;;;5079932;28;20028;-76
2021/06/26 00:04:17;;;;;;;7.30;4.45;;;17.80;99.90;;;;;;5070166;28;20048;-76
2021/06/26 00:06:42;;;;;;;6.82;4.68;;;17.80;99.90;;;;;;5073533;28;20028;-76
2021/06/26 00:09:08;;;;;;;5.70;5.10;;;17.70;99.90;;;;;;5075774;28;20102;-76
2021/06/26 00:11:33;;;;;;;6.53;4.93;;;17.60;99.90;;;;;;5082452;28;20085;-75
2021/06/26 00:13:59;;;;;;;6.50;4.63;;;17.60;99.90;;;;;;5079202;28;20101;-76
2021/06/26 00:16:24;;;;;;;6.97;4.93;;;17.60;99.90;;;;;;5075707;28;20020;-76
2021/06/26 00:18:50;;;;;;;6.63;4.85;;;17.50;99.90;;;;;;5080035;28;20030;-76
2021/06/26 00:21:16;;;;;;;6.82;5.03;;;17.50;99.90;;;;;;5081605;28;20111;-75
2021/06/26 00:23:41;;;;;;;5.55;4.55;;;17.40;99.90;;;;;;5078731;28;20055;-76
2021/06/26 00:26:07;;;;;;;5.47;4.43;;;17.40;99.90;;;;;;5081496;28;20056;-76
2021/06/26 00:28:32;;;;;;;6.55;5.00;;;17.30;99.90;;;;;;5074654;28;20078;-76
2021/06/26 00:30:58;;;;;;;7.40;5.13;;;17.20;99.90;;;;;;5076580;28;20039;-75
2021/06/26 00:33:23;;;;;;;5.82;4.88;;;17.20;99.90;;;;;;5076295;28;20043;-75
2021/06/26 00:35:49;;;;;;;5.65;4.88;;;17.10;99.90;;;;;;5077116;28;20057;-76
2021/06/26 00:38:15;;;;;;;7.90;5.28;;;17.10;99.90;;;;;;5082381;28;20032;-76
2021/06/26 00:40:40;;;;;;;6.35;4.72;;;17.10;99.90;;;;;;5078783;28;20457;-75
2021/06/26 00:43:06;;;;;;;6.07;4.97;;;17.00;99.90;;;;;;5079905;28;20039;-75
2021/06/26 00:45:31;;;;;;;9.30;5.07;;;17.00;99.90;;;;;;5078707;28;20047;-75
2021/06/26 00:47:57;;;;;;;6.53;5.35;;;17.00;99.90;;;;;;5072230;28;21132;-76
2021/06/26 00:50:28;;;;;;;6.68;5.15;;;16.90;99.90;;;;;;5077473;28;20161;-75
2021/06/26 00:52:54;;;;;;;6.63;5.30;;;16.90;99.90;;;;;;5077770;28;20059;-76
2021/06/26 00:55:20;;;;;;;8.85;4.88;;;16.80;99.90;;;;;;5078035;28;20082;-75
2021/06/26 00:57:50;;;;;;;6.90;5.15;;;16.70;99.90;;;;;;5077662;28;20115;-76
2021/06/26 01:00:16;;;;;;;6.32;5.00;;;16.70;99.90;;;;;;5080549;28;20045;-76
2021/06/26 01:02:42;;;;;;;6.68;4.80;;;16.60;99.90;;;;;;5081789;28;20024;-76
2021/06/26 01:05:10;;;;;;;7.05;5.03;;;16.50;99.90;;;;;;5082434;28;20028;-76
2021/06/26 01:07:35;;;;;;;7.38;4.80;;;16.50;99.90;;;;;;5070623;28;20407;-75
2021/06/26 01:10:01;;;;;;;6.05;4.85;;;16.40;99.90;;;;;;5076887;28;20504;-75
2021/06/26 01:12:26;;;;;;;5.90;4.95;;;16.40;99.90;;;;;;5082258;28;20503;-76
2021/06/26 01:14:52;;;;;;;7.30;5.03;;;16.40;99.90;;;;;;5084132;28;20024;-76
2021/06/26 01:17:19;;;;;;;7.72;5.00;;;16.30;99.90;;;;;;5077299;28;20020;-75
2021/06/26 01:19:45;;;;;;;6.45;4.57;;;16.20;99.90;;;;;;5067185;28;20086;-76
2021/06/26 01:22:15;;;;;;;6.95;5.00;;;16.20;99.90;;;;;;5071786;28;20471;-76
2021/06/26 01:24:40;;;;;;;6.15;4.93;;;16.20;99.90;;;;;;5083917;28;20024;-76
2021/06/26 01:27:06;;;;;;;6.25;4.90;;;16.10;99.90;;;;;;5077807;28;20548;-76
2021/06/26 01:29:32;;;;;;;7.22;4.88;;;16.10;99.90;;;;;;5074506;28;20032;-75
2021/06/26 01:31:58;;;;;;;7.55;5.00;;;16.00;99.90;;;;;;5075428;28;20107;-75
2021/06/26 01:34:23;;;;;;;5.65;5.10;;;16.00;99.90;;;;;;5077904;28;20456;-75
2021/06/26 01:36:49;;;;;;;7.65;4.88;;;16.00;99.90;;;;;;5074455;28;20035;-76
2021/06/26 01:39:15;;;;;;;5.32;4.60;;;15.90;99.90;;;;;;5072925;28;20033;-75
2021/06/26 01:41:42;;;;;;;6.47;4.93;;;15.80;99.90;;;;;;5074720;28;20044;-76
2021/06/26 01:44:07;;;;;;;7.10;4.97;;;15.80;99.90;;;;;;5080149;28;20050;-76
2021/06/26 01:46:33;;;;;;;7.82;5.35;;;15.80;99.90;;;;;;5078299;28;20449;-76
2021/06/26 01:49:10;;;;;;;6.05;5.07;;;15.80;99.90;;;;;;5079938;28;20032;-76
2021/06/26 01:51:36;;;;;;;10.40;5.43;;;15.70;99.90;;;;;;5079070;28;20672;-76
2021/06/26 01:54:04;;;;;;;7.38;5.03;;;15.70;99.90;;;;;;5074941;28;20534;-76
2021/06/26 01:56:29;;;;;;;6.05;4.72;;;15.60;99.90;;;;;;5077645;28;20390;-76
2021/06/26 01:58:55;;;;;;;7.50;5.20;;;15.60;99.90;;;;;;5083109;28;20032;-76
2021/06/26 02:01:21;;;;;;;9.48;5.82;;;15.60;99.90;;;;;;5075673;28;20032;-76
2021/06/26 02:03:46;;;;;;;6.07;4.82;;;15.50;99.90;;;;;;5076615;28;20425;-76
2021/06/26 02:06:12;;;;;;;7.03;5.55;;;15.50;99.90;;;;;;5080723;28;20066;-76
2021/06/26 02:08:38;;;;;;;5.60;4.60;;;15.50;99.90;;;;;;5074576;28;20126;-76
2021/06/26 02:11:03;;;;;;;8.07;5.20;;;15.50;99.90;;;;;;5079640;28;20052;-76
2021/06/26 02:13:29;;;;;;;7.18;5.28;;;15.50;99.90;;;;;;5076647;28;20522;-76
2021/06/26 02:15:54;;;;;;;7.53;5.10;;;15.50;99.90;;;;;;5079566;28;20509;-76
2021/06/26 02:18:19;;;;;;;7.90;5.70;;;15.40;99.90;;;;;;5072607;28;20028;-76
2021/06/26 02:20:45;;;;;;;11.40;6.25;;;15.40;99.90;;;;;;5078805;28;20020;-75
2021/06/26 02:23:11;;;;;;;9.68;5.13;;;15.30;99.90;;;;;;5079420;28;20428;-75
2021/06/26 02:25:36;;;;;;;8.00;5.45;;;15.30;99.90;;;;;;5075591;28;20063;-75
2021/06/26 02:28:02;;;;;;;6.78;5.50;;;15.30;99.90;;;;;;5076958;28;20788;-76
2021/06/26 02:30:39;;;;;;;8.68;5.82;;;15.20;99.90;;;;;;5075086;28;20030;-75
2021/06/26 02:33:05;;;;;;;8.07;5.28;;;15.20;99.90;;;;;;5076850;28;20031;-75
2021/06/26 02:35:31;;;;;;;6.07;5.13;;;15.20;99.90;;;;;;5075632;28;20058;-75
2021/06/26 02:37:57;;;;;;;7.50;5.55;;;15.20;99.90;;;;;;5077257;28;20036;-75
2021/06/26 02:40:22;;;;;;;6.93;5.35;;;15.20;99.90;;;;;;5078101;28;20020;-76
2021/06/26 02:42:48;;;;;;;7.07;4.97;;;15.20;99.90;;;;;;5078913;28;20024;-76
2021/06/26 02:45:14;;;;;;;7.00;5.53;;;15.10;99.90;;;;;;5079006;28;20043;-76
2021/06/26 02:47:39;;;;;;;6.43;5.20;;;15.10;99.90;;;;;;5072203;28;20024;-76
2021/06/26 02:50:07;;;;;;;8.40;5.53;;;15.10;99.90;;;;;;5076707;28;20062;-76
2021/06/26 02:52:33;;;;;;;8.13;5.45;;;15.10;99.90;;;;;;5068812;28;20482;-75
2021/06/26 02:54:58;;;;;;;6.65;5.00;;;15.10;99.90;;;;;;5082885;28;20039;-76
2021/06/26 02:57:24;;;;;;;8.10;5.40;;;15.00;99.90;;;;;;5080109;28;20016;-76
2021/06/26 02:59:50;;;;;;;7.75;5.70;;;15.00;99.90;;;;;;5077505;28;20097;-76
2021/06/26 03:02:16;;;;;;;9.63;6.25;;;14.90;99.90;;;;;;5079556;28;20015;-76
2021/06/26 03:04:41;;;;;;;7.68;5.53;;;14.90;99.90;;;;;;5080688;28;20036;-76
2021/06/26 03:07:07;;;;;;;9.68;6.15;;;14.90;99.90;;;;;;5072323;28;20512;-76
2021/06/26 03:09:32;;;;;;;7.18;5.38;;;14.90;99.90;;;;;;5082242;28;20039;-76
2021/06/26 03:11:58;;;;;;;7.68;5.63;;;14.90;99.90;;;;;;5075344;28;20028;-75
2021/06/26 03:14:23;;;;;;;7.20;5.63;;;14.80;99.90;;;;;;5075094;28;20063;-76
2021/06/26 03:16:49;;;;;;;7.88;5.60;;;14.90;99.90;;;;;;5080979;28;20097;-76
2021/06/26 03:19:14;;;;;;;7.43;5.70;;;14.80;99.90;;;;;;5075811;28;20452;-76
2021/06/26 03:21:41;;;;;;;7.57;5.32;;;14.90;99.90;;;;;;5078502;28;20106;-76
2021/06/26 03:24:07;;;;;;;7.57;5.60;;;14.90;99.90;;;;;;5077598;28;20149;-76
2021/06/26 03:26:34;;;;;;;8.18;5.75;;;14.80;99.90;;;;;;5074449;28;20029;-76
2021/06/26 03:29:00;;;;;;;7.03;5.57;;;14.90;99.90;;;;;;5073930;28;20051;-76
2021/06/26 03:31:25;;;;;;;7.88;5.90;;;14.80;99.90;;;;;;5081513;28;20027;-75
2021/06/26 03:33:51;;;;;;;7.43;5.75;;;14.90;99.90;;;;;;5070218;28;20024;-76
2021/06/26 03:36:17;;;;;;;6.68;5.78;;;14.80;99.90;;;;;;5078659;28;20085;-76
2021/06/26 03:38:43;;;;;;;14.65;5.97;;;14.90;99.90;;;;;;5073627;28;20032;-76
2021/06/26 03:41:08;;;;;;;7.88;6.05;;;14.80;99.90;;;;;;5072557;28;20067;-75
2021/06/26 03:43:34;;;;;;;11.35;5.95;;;14.90;99.90;;;;;;5075440;28;20024;-75
2021/06/26 03:45:59;;;;;;;12.32;5.40;;;15.00;99.90;;;;;;5082939;28;20040;-76
2021/06/26 03:48:25;;;;;;;8.77;5.97;;;15.00;99.90;;;;;;5084813;28;20118;-76
2021/06/26 03:50:51;;;;;;;8.77;6.55;;;15.00;99.90;;;;;;5082311;28;20107;-76
2021/06/26 03:53:16;;;;;;;11.85;6.07;;;15.00;99.90;;;;;;5080717;28;20115;-76
2021/06/26 03:55:51;;;;;;;7.45;6.07;;;15.10;99.90;;;;;;5077283;28;20115;-76
2021/06/26 03:58:20;;;;;;;9.02;6.38;;;15.10;99.90;;;;;;5080812;28;20497;-76
2021/06/26 04:00:46;;;;;;;8.27;6.57;;;15.20;99.90;;;;;;5080137;28;20036;-76
2021/06/26 04:03:11;;;;;;;7.28;5.60;;;15.20;99.90;;;;;;5081002;28;20085;-76
2021/06/26 04:05:37;;;;;;;7.75;6.30;;;15.30;99.90;;;;;;5086361;28;20387;-76
2021/06/26 04:08:05;;;;;;;8.68;6.68;;;15.40;99.90;;;;;;5081690;28;20042;-75
2021/06/26 04:10:32;;;;;;;8.48;6.18;;;15.50;99.90;;;;;;5079272;28;20056;-75
2021/06/26 04:12:57;;;;;;;8.25;6.00;;;15.50;99.90;;;;;;5081148;28;20032;-75
2021/06/26 04:15:23;;;;;;;11.10;6.40;;;15.60;99.90;;;;;;5077375;28;20029;-76
2021/06/26 04:17:48;;;;;;;7.63;6.47;;;15.70;99.90;;;;;;5075361;28;20569;-76
2021/06/26 04:20:14;;;;;;;9.38;6.25;;;15.80;99.90;;;;;;5076740;28;20059;-76
2021/06/26 04:22:43;;;;;;;7.97;6.40;;;15.80;99.90;;;;;;5083336;28;20120;-75
2021/06/26 04:25:09;;;;;;;11.27;6.72;;;15.90;99.90;;;;;;5083999;28;20064;-76
2021/06/26 04:27:34;;;;;;;12.82;6.75;;;16.00;99.90;;;;;;5074523;28;20070;-76
2021/06/26 04:30:01;;;;;;;11.63;6.40;;;16.10;99.90;;;;;;5077533;28;20161;-76
2021/06/26 04:32:27;;;;;;;9.60;6.57;;;16.20;99.90;;;;;;5077243;28;20023;-76
2021/06/26 04:34:53;;;;;;;8.90;6.78;;;16.30;99.90;;;;;;5083130;28;20029;-76
2021/06/26 04:37:19;;;;;;;9.55;7.10;;;16.30;99.90;;;;;;5075065;28;20677;-76
2021/06/26 04:39:44;;;;;;;9.75;6.93;;;16.40;99.90;;;;;;5068870;28;20024;-76
2021/06/26 04:42:10;;;;;;;9.63;6.68;;;16.50;99.90;;;;;;5079298;28;20543;-76
2021/06/26 04:44:36;;;;;;;13.13;6.68;;;16.50;99.90;;;;;;5076799;28;20020;-76
2021/06/26 04:47:02;;;;;;;8.50;6.65;;;16.60;99.90;;;;;;5077098;28;20030;-76
2021/06/26 04:49:28;;;;;;;9.30;6.88;;;16.70;99.90;;;;;;5080695;28;20044;-76
2021/06/26 04:51:53;;;;;;;9.95;6.93;;;16.80;99.90;;;;;;5080980;28;20113;-76
2021/06/26 04:54:19;;;;;;;11.57;7.10;;;16.90;99.90;;;;;;5081611;28;20028;-76
2021/06/26 04:56:44;;;;;;;9.98;6.72;;;16.90;99.90;;;;;;5075971;28;20082;-76
2021/06/26 04:59:10;;;;;;;7.97;6.07;;;17.00;99.90;;;;;;5079492;28;20466;-76
2021/06/26 05:01:35;;;;;;;10.38;6.70;;;17.10;99.90;;;;;;5076553;28;20020;-76
2021/06/26 05:04:01;;;;;;;7.60;5.95;;;17.20;99.90;;;;;;5081920;28;20032;-76
2021/06/26 05:06:26;;;;;;;8.48;6.25;;;17.30;99.90;;;;;;5075846;28;20718;-76
2021/06/26 05:08:51;;;;;;;11.48;7.22;;;17.30;99.90;;;;;;5077161;28;20138;-76
2021/06/26 05:11:17;;;;;;;12.48;6.38;;;17.50;99.90;;;;;;5076883;28;20745;-76
2021/06/26 05:13:42;;;;;;;10.32;6.90;;;17.60;99.90;;;;;;5077802;28;20032;-76
2021/06/26 05:16:08;;;;;;;9.32;6.45;;;17.60;99.90;;;;;;5080837;28;20028;-76
2021/06/26 05:18:34;;;;;;;10.75;7.18;;;17.80;99.90;;;;;;5082098;28;20036;-76
2021/06/26 05:21:22;;;;;;;8.82;6.88;;;17.80;99.90;;;;;;5076877;28;20063;-76
2021/06/26 05:23:49;;;;;;;9.63;6.88;;;17.90;99.90;;;;;;5070989;28;20024;-76
2021/06/26 05:26:14;;;;;;;9.00;7.15;;;18.00;99.90;;;;;;5082024;28;20024;-76
2021/06/26 05:28:39;;;;;;;7.70;6.47;;;18.10;99.90;;;;;;5075645;28;20024;-76
2021/06/26 05:31:06;;;;;;;11.35;6.57;;;18.20;99.90;;;;;;5075596;28;20077;-76
2021/06/26 05:33:31;;;;;;;9.13;6.57;;;18.30;99.90;;;;;;5079446;28;20060;-76
2021/06/26 05:35:58;;;;;;;9.57;6.80;;;18.40;99.90;;;;;;5080931;28;20509;-77
2021/06/26 05:38:24;;;;;;;8.73;6.30;;;18.40;99.90;;;;;;5075534;28;20483;-76
2021/06/26 05:40:52;;;;;;;7.22;6.15;;;18.50;99.90;;;;;;5083413;28;20046;-76
2021/06/26 05:43:18;;;;;;;8.57;5.97;;;18.50;99.90;;;;;;5079855;28;20028;-77
2021/06/26 05:45:43;;;;;;;10.75;6.65;;;18.60;99.90;;;;;;5074694;28;20024;-76
2021/06/26 05:48:09;;;;;;;8.52;6.35;;;18.60;99.90;;;;;;5079143;28;20098;-77
2021/06/26 05:50:35;;;;;;;7.28;6.07;;;18.60;99.90;;;;;;5083418;28;20024;-76
2021/06/26 05:53:01;;;;;;;7.40;5.72;;;18.60;99.90;;;;;;5082530;28;20067;-78
2021/06/26 05:55:27;;;;;;;8.77;5.85;;;18.70;99.90;;;;;;5072579;28;20051;-78
2021/06/26 05:57:53;;;;;;;9.45;6.30;;;18.70;99.90;;;;;;5083056;28;20035;-76
2021/06/26 06:00:20;;;;;;;8.85;6.22;;;18.70;99.90;;;;;;5079677;28;20024;-75
2021/06/26 06:02:49;;;;;;;8.93;5.90;;;18.70;99.90;;;;;;5076043;28;20028;-75
2021/06/26 06:05:15;;;;;;;8.38;5.80;;;18.80;99.90;;;;;;5081726;28;20028;-75
2021/06/26 06:07:45;;;;;;;8.23;5.78;;;18.80;99.90;;;;;;5075101;28;20056;-75
2021/06/26 06:10:13;;;;;;;9.10;5.53;;;18.90;99.90;;;;;;5076353;28;20486;-76
2021/06/26 06:12:39;;;;;;;7.38;6.28;;;18.90;99.90;;;;;;5078150;28;20024;-73
2021/06/26 06:15:07;;;;;;;8.23;6.20;;;19.00;99.90;;;;;;5076818;28;20031;-76
2021/06/26 06:17:32;;;;;;;7.90;6.07;;;19.00;99.90;;;;;;5082739;28;20024;-76
2021/06/26 06:19:58;;;;;;;8.20;5.90;;;19.00;99.90;;;;;;5070540;28;20430;-79
2021/06/26 06:22:24;;;;;;;7.28;5.28;;;19.00;99.90;;;;;;5076978;28;20031;-76
2021/06/26 06:24:50;;;;;;;7.97;6.10;;;19.00;99.90;;;;;;5085584;28;20035;-78
2021/06/26 06:27:16;;;;;;;8.05;5.47;;;19.00;99.90;;;;;;5073951;28;20039;-75
2021/06/26 06:29:42;;;;;;;8.27;5.90;;;19.00;99.90;;;;;;5071013;28;20031;-74
2021/06/26 06:32:07;;;;;;;6.22;5.53;;;19.00;99.90;;;;;;5078495;28;20044;-75
2021/06/26 06:34:33;;;;;;;7.70;5.97;;;19.00;99.90;;;;;;5077802;28;20105;-75
2021/06/26 06:36:58;;;;;;;7.32;5.50;;;19.00;99.90;;;;;;5078418;28;20100;-74
2021/06/26 06:39:25;;;;;;;9.30;5.53;;;19.10;99.90;;;;;;5070319;28;20605;-75
2021/06/26 06:41:51;;;;;;;6.97;5.35;;;19.10;99.90;;;;;;5076134;28;20020;-74
2021/06/26 06:44:16;;;;;;;7.97;5.78;;;19.00;99.90;;;;;;5074109;28;20031;-74
2021/06/26 06:46:42;;;;;;;6.63;5.45;;;19.00;99.90;;;;;;5080217;28;20024;-75
2021/06/26 06:49:07;;;;;;;8.52;5.28;;;19.00;99.90;;;;;;5076252;28;20111;-74
2021/06/26 06:51:33;;;;;;;7.72;5.97;;;18.90;99.90;;;;;;5075810;28;20439;-75
2021/06/26 06:54:02;;;;;;;6.55;5.30;;;18.90;99.90;;;;;;5079496;28;20513;-75
2021/06/26 06:56:28;;;;;;;7.32;5.85;;;18.90;99.90;;;;;;5072429;28;20037;-74
2021/06/26 06:58:56;;;;;;;9.63;5.30;;;18.90;99.90;;;;;;5082551;28;20384;-73
2021/06/26 07:01:23;;;;;;;8.85;5.32;;;18.90;99.90;;;;;;5082547;28;20020;-73
2021/06/26 07:03:55;;;;;;;8.95;6.05;;;18.90;99.90;;;;;;5076232;28;20054;-74
2021/06/26 07:06:20;;;;;;;8.77;5.80;;;18.90;99.90;;;;;;5082315;28;20027;-74
2021/06/26 07:08:45;;;;;;;6.45;4.85;;;19.00;99.90;;;;;;5071246;28;20044;-71
2021/06/26 07:11:11;;;;;;;6.82;5.30;;;19.00;99.90;;;;;;5072106;28;20613;-76
2021/06/26 07:13:40;;;;;;;6.57;4.70;;;19.10;99.90;;;;;;5075079;28;20255;-76
2021/06/26 07:16:05;;;;;;;6.53;4.85;;;19.20;99.90;;;;;;5078846;28;20020;-76
2021/06/26 07:18:31;;;;;;;6.20;5.05;;;19.20;99.90;;;;;;5073780;28;20027;-74
2021/06/26 07:20:56;;;;;;;7.68;5.30;;;19.30;99.90;;;;;;5076740;28;20083;-77
2021/06/26 07:23:21;;;;;;;6.80;4.75;;;19.40;99.90;;;;;;5072557;28;20032;-81
2021/06/26 07:25:47;;;;;;;6.57;4.97;;;19.50;99.90;;;;;;5079206;28;20028;-82
2021/06/26 07:28:12;;;;;;;5.18;4.68;;;19.50;99.90;;;;;;5083073;28;20038;-76
2021/06/26 07:30:38;;;;;;;5.82;4.30;;;19.60;99.90;;;;;;5081451;28;20021;-76
2021/06/26 07:33:04;;;;;;;5.40;4.10;;;19.60;99.90;;;;;;5083522;28;20477;-77
2021/06/26 07:35:29;;;;;;;4.60;4.00;;;19.60;99.90;;;;;;5075416;28;20062;-82
2021/06/26 07:37:55;;;;;;;5.90;3.83;;;19.60;99.90;;;;;;5078148;28;20016;-91
2021/06/26 07:40:20;;;;;;;4.40;3.78;;;19.60;99.90;;;;;;5074773;28;20023;-83
2021/06/26 07:42:46;;;;;;;5.05;3.65;;;19.60;99.90;;;;;;5077479;28;20020;-82
2021/06/26 07:45:12;;;;;;;6.20;3.97;;;19.70;99.90;;;;;;5075373;28;20137;-78
2021/06/26 07:47:38;;;;;;;4.05;3.58;;;19.90;99.90;;;;;;5079339;28;20123;-79
2021/06/26 07:50:05;;;;;;;5.05;4.25;;;20.10;99.90;;;;;;5078570;28;20452;-77
2021/06/26 07:52:30;;;;;;;5.95;4.25;;;20.30;97.60;;;;;;5074277;28;20086;-77
2021/06/26 07:54:56;;;;;;;4.25;3.30;;;20.50;98.00;;;;;;5076687;28;20032;-79
2021/06/26 07:57:22;;;;;;;7.90;3.97;;;20.70;98.00;;;;;;5080283;28;20032;-78
2021/06/26 07:59:47;;;;;;;8.05;4.03;;;20.90;98.10;;;;;;5073339;28;20436;-78
2021/06/26 08:02:12;;;;;;;6.95;4.80;;;21.10;96.30;;;;;;5072787;28;20029;-78
2021/06/26 08:04:38;;;;;;;4.18;3.25;;;21.20;92.80;;;;;;5075974;28;21771;-79
2021/06/26 08:07:04;;;;;;;5.60;3.60;;;21.40;94.00;;;;;;5082769;28;20069;-76
2021/06/26 08:09:29;;;;;;;6.60;3.90;;;21.50;94.90;;;;;;5083486;28;20027;-73
2021/06/26 08:11:55;;;;;;;6.25;3.83;;;21.60;93.00;;;;;;5072664;28;20032;-76
2021/06/26 08:14:21;;;;;;;7.18;3.85;;;21.70;93.60;;;;;;5075485;28;20032;-76
2021/06/26 08:16:46;;;;;;;6.28;3.75;;;21.80;92.30;;;;;;5079786;28;20265;-77
2021/06/26 08:19:12;;;;;;;6.60;4.35;;;21.80;91.00;;;;;;5074853;28;20111;-75
2021/06/26 08:21:38;;;;;;;5.22;3.67;;;21.90;90.90;;;;;;5073484;28;20027;-75
2021/06/26 08:24:04;;;;;;;4.50;4.10;;;21.90;88.70;;;;;;5075530;28;20065;-76
2021/06/26 08:26:30;;;;;;;5.07;4.25;;;21.90;87.50;;;;;;5072330;28;20390;-76
2021/06/26 08:28:55;;;;;;;4.90;3.75;;;22.00;86.40;;;;;;5085222;28;20037;-76
2021/06/26 08:31:21;;;;;;;5.22;4.63;;;22.00;82.80;;;;;;5083238;28;20055;-75
2021/06/26 08:33:46;;;;;;;5.13;4.18;;;22.00;84.10;;;;;;5076640;28;20107;-76
2021/06/26 08:36:12;;;;;;;4.88;4.38;;;21.90;80.80;;;;;;5076832;28;20063;-76
2021/06/26 08:38:39;;;;;;;5.70;4.00;;;21.80;82.60;;;;;;5078442;28;20108;-79
2021/06/26 08:41:05;;;;;;;5.28;4.10;;;21.70;82.80;;;;;;5080187;28;20052;-80
2021/06/26 08:43:31;;;;;;;7.22;3.58;;;21.70;81.70;;;;;;5071831;28;20020;-81
2021/06/26 08:45:59;;;;;;;5.53;3.63;;;21.60;78.30;;;;;;5086369;28;20033;-78
2021/06/26 08:48:25;;;;;;;5.45;3.78;;;21.60;79.00;;;;;;5078585;28;20032;-77
2021/06/26 08:50:51;;;;;;;3.78;3.33;;;21.50;80.30;;;;;;5073318;28;20025;-77
2021/06/26 08:53:16;;;;;;;7.70;4.35;;;21.40;82.10;;;;;;5092845;28;20019;-77
2021/06/26 08:55:42;;;;;;;5.55;4.05;;;21.30;83.80;;;;;;5087175;28;20821;-78
2021/06/26 08:58:07;;;;;;;4.90;3.90;;;21.20;83.20;;;;;;5078720;28;20443;-75
2021/06/26 09:00:36;;;;;;;6.85;3.25;;;21.20;83.60;;;;;;5081277;28;20020;-76
2021/06/26 09:03:22;;;;;;;8.18;4.07;;;21.20;89.40;;;;;;5077755;28;20078;-77
2021/06/26 09:05:48;;;;;;;4.57;3.85;;;21.10;89.90;;;;;;5081650;28;20024;-79
2021/06/26 09:08:19;;;;;;;5.07;3.88;;;21.30;85.30;;;;;;5078431;28;20052;-76
2021/06/26 09:10:47;;;;;;;5.15;4.07;;;21.50;84.20;;;;;;5079435;28;20028;-78
2021/06/26 09:13:25;;;;;;;5.60;4.03;;;21.80;79.20;;;;;;5087881;28;20044;-76
2021/06/26 09:16:02;;;;;;;9.98;3.58;;;22.10;75.30;;;;;;5090838;28;20078;-79
2021/06/26 09:18:28;;;;;;;14.95;4.05;;;22.30;79.60;;;;;;5091192;28;20100;-78
2021/06/26 09:20:55;;;;;;;4.63;4.00;;;22.80;80.10;;;;;;5090933;28;20048;-77
2021/06/26 09:23:33;;;;;;;4.70;3.85;;;23.00;78.50;;;;;;5091123;28;20379;-78
2021/06/26 09:26:10;;;;;;;4.00;3.60;;;23.20;77.10;;;;;;5090699;28;20020;-78
2021/06/26 09:28:37;;;;;;;14.00;3.70;;;23.30;76.50;;;;;;5090930;28;20016;-79
2021/06/26 09:31:04;;;;;;;4.65;3.72;;;23.40;71.40;;;;;;5090688;28;20494;-78
2021/06/26 09:33:30;;;;;;;6.30;3.92;;;23.20;66.30;;;;;;5090884;28;20374;-78
2021/06/26 09:36:10;;;;;;;3.75;3.35;;;23.00;65.80;;;;;;5090729;28;20051;-77
2021/06/26 09:38:53;;;;;;;5.30;3.80;;;22.80;67.20;;;;;;5090451;28;20024;-78
2021/06/26 09:41:19;;;;;;;4.15;3.67;;;22.70;67.50;;;;;;5090547;28;20039;-78
2021/06/26 09:43:44;;;;;;;6.75;3.72;;;22.60;66.70;;;;;;5090020;28;20012;-78
2021/06/26 09:46:12;;;;;;;5.00;4.00;;;22.50;66.20;;;;;;5090299;28;20028;-78
2021/06/26 09:48:55;;;;;;;5.90;4.15;;;22.40;67.40;;;;;;5090477;28;20044;-78
2021/06/26 09:51:30;;;;;;;4.10;3.63;;;22.40;68.10;;;;;;5090380;28;20024;-78
2021/06/26 09:54:01;;;;;;;4.35;3.92;;;22.30;68.20;;;;;;5090297;28;20024;-78
2021/06/26 09:56:44;;;;;;;8.35;3.83;;;22.30;65.70;;;;;;5090337;28;20378;-78
2021/06/26 09:59:11;;;;;;;4.35;3.58;;;22.30;68.40;;;;;;5090072;28;20026;-78
2021/06/26 10:01:43;;;;;;;4.57;4.00;;;22.30;67.40;;;;;;5090233;28;20466;-77
2021/06/26 10:04:16;;;;;;;4.38;3.70;;;22.30;69.50;;;;;;5090049;28;20053;-78
2021/06/26 10:06:42;;;;;;;5.50;3.97;;;22.40;67.70;;;;;;5090214;28;20452;-78
2021/06/26 10:09:08;;;;;;;4.40;3.63;;;22.60;70.40;;;;;;5089944;28;20514;-77
2021/06/26 10:11:35;;;;;;;3.80;3.30;;;22.80;64.90;;;;;;5090094;28;20019;-79
2021/06/26 10:14:04;;;;;;;4.75;3.95;;;22.90;64.10;;;;;;5089796;28;20240;-78
2021/06/26 10:16:30;;;;;;;6.65;3.63;;;23.00;66.50;;;;;;5089865;28;20478;-78
2021/06/26 10:19:02;;;;;;;5.20;3.90;;;23.20;65.20;;;;;;5089855;28;20028;-76
2021/06/26 10:21:29;;;;;;;5.70;3.20;;;23.40;66.10;;;;;;5089911;28;20103;-78
2021/06/26 10:23:56;;;;;;;6.88;3.45;;;23.70;67.10;;;;;;5089779;28;20100;-79
2021/06/26 10:26:23;;;;;;;2.80;2.60;;;23.90;65.30;;;;;;5089733;28;20231;-78
2021/06/26 10:29:00;;;;;;;5.15;2.83;;;24.00;63.70;;;;;;5088436;28;20539;-79
2021/06/26 10:31:45;;;;;;;3.55;2.67;;;23.90;58.80;;;;;;5089716;28;20055;-78
2021/06/26 10:34:13;;;;;;;3.67;2.35;;;23.60;57.30;;;;;;5089556;28;20020;-79
2021/06/26 10:36:43;;;;;;;2.95;2.50;;;23.40;56.20;;;;;;5089755;28;20103;-78
2021/06/26 10:39:29;;;;;;;2.17;1.90;;;23.30;55.30;;;;;;5089415;28;20043;-79
2021/06/26 10:42:09;;;;;;;2.13;1.92;;;23.10;53.90;;;;;;5089651;28;20418;-79
2021/06/26 10:44:50;;;;;;;2.70;2.50;;;23.00;55.20;;;;;;5089582;28;20252;-78
2021/06/26 10:47:32;;;;;;;3.78;2.42;;;23.20;66.30;;;;;;5089253;28;20390;-78
2021/06/26 10:50:15;;;;;;;2.40;2.20;;;23.40;60.70;;;;;;5089113;28;20251;-78
2021/06/26 10:52:58;;;;;;;4.43;2.00;;;23.70;60.40;;;;;;5089329;28;20031;-76
2021/06/26 10:55:28;;;;;;;1.50;1.40;;;24.00;60.50;;;;;;5089279;28;20224;-78
2021/06/26 10:57:54;;;;;;;2.28;1.90;;;24.30;50.40;;;;;;5089160;28;20035;-79
2021/06/26 11:00:31;;;;;;;2.13;1.92;;;24.70;47.70;;;;;;5089035;28;20028;-79
2021/06/26 11:02:56;;;;;;;1.90;1.80;;;25.00;45.80;;;;;;5089130;28;20047;-79
2021/06/26 11:05:33;;;;;;;3.25;1.92;;;25.10;46.10;;;;;;5089074;28;20581;-79
2021/06/26 11:07:59;;;;;;;2.17;1.98;;;25.30;43.40;;;;;;5088683;28;20709;-78
2021/06/26 11:10:25;;;;;;;2.45;2.03;;;25.50;48.10;;;;;;5088987;28;20046;-79
2021/06/26 11:12:51;;;;;;;3.03;1.85;;;25.70;44.20;;;;;;5089174;28;20020;-79
2021/06/26 11:15:26;;;;;;;1.70;1.60;;;26.00;44.20;;;;;;5088672;28;20470;-79
2021/06/26 11:17:51;;;;;;;2.28;1.67;;;26.20;41.00;;;;;;5089018;28;20020;-79
2021/06/26 11:20:18;;;;;;;3.30;1.63;;;26.30;44.90;;;;;;5088710;28;20028;-79
2021/06/26 11:22:57;;;;;;;2.03;1.67;;;26.60;40.30;;;;;;5088947;28;20043;-77
2021/06/26 11:25:31;;;;;;;1.88;1.60;;;26.90;50.70;;;;;;5088421;28;20054;-78
2021/06/26 11:28:05;;;;;;;1.50;1.40;;;27.30;45.10;;;;;;5088770;28;20510;-77
2021/06/26 11:30:30;;;;;;;1.60;1.50;;;27.70;43.00;;;;;;5088586;28;20058;-77
2021/06/26 11:32:57;;;;;;;2.33;1.80;;;28.30;41.80;;;;;;5088691;28;20564;-79
2021/06/26 11:35:30;;;;;;;2.60;1.60;;;28.70;46.70;;;;;;5088431;28;20031;-77
2021/06/26 11:37:55;;;;;;;1.60;1.30;;;29.10;43.30;;;;;;5088588;28;20396;-76
2021/06/26 11:40:23;;;;;;;2.97;1.30;;;29.20;39.20;;;;;;5088344;28;20042;-76
2021/06/26 11:42:49;;;;;;;1.65;1.55;;;28.80;41.00;;;;;;5088601;28;20024;-76
2021/06/26 11:45:16;;;;;;;1.92;1.67;;;28.10;43.00;;;;;;5088438;28;20024;-76
2021/06/26 11:47:42;;;;;;;1.63;1.52;;;27.50;47.50;;;;;;5088447;28;20278;-78
2021/06/26 11:50:17;;;;;;;1.20;1.10;;;27.30;43.00;;;;;;5088851;28;20024;-76
2021/06/26 11:52:43;;;;;;;1.67;1.40;;;28.40;39.30;;;;;;5088450;28;20024;-77
2021/06/26 11:55:09;;;;;;;10.32;1.70;;;29.70;39.60;;;;;;5088349;28;20111;-76
2021/06/26 11:57:35;;;;;;;1.05;1.02;;;30.90;38.20;;;;;;5088517;28;20485;-76
2021/06/26 12:00:00;;;;;;;1.75;1.30;;;31.70;29.40;;;;;;5088323;28;20118;-76
2021/06/26 12:02:32;;;;;;;1.35;1.25;;;32.40;29.40;;;;;;5088724;28;20078;-76
2021/06/26 12:04:58;;;;;;;1.48;1.38;;;33.00;27.80;;;;;;5088794;28;20389;-76
2021/06/26 12:07:36;;;;;;;1.65;1.38;;;32.60;27.60;;;;;;5091904;28;20264;-76
2021/06/26 12:10:07;;;;;;;2.55;1.40;;;31.40;31.40;;;;;;5092419;28;20028;-77
2021/06/26 12:12:42;;;;;;;3.20;1.30;;;30.10;29.80;;;;;;5092320;28;20032;-76
2021/06/26 12:15:10;;;;;;;1.58;1.40;;;28.90;34.40;;;;;;5092178;28;20052;-77
2021/06/26 12:17:36;;;;;;;2.10;1.50;;;29.20;31.40;;;;;;5092196;28;20048;-76
2021/06/26 12:20:06;;;;;;;1.52;1.42;;;30.50;28.70;;;;;;5092299;28;20074;-77
2021/06/26 12:22:32;;;;;;;2.37;1.33;;;31.70;31.60;;;;;;5092270;28;20523;-77
2021/06/26 12:25:09;;;;;;;1.40;1.30;;;33.00;29.30;;;;;;5092107;28;20417;-76
2021/06/26 12:27:35;;;;;;;2.08;1.70;;;34.30;29.00;;;;;;5092110;28;20501;-76
2021/06/26 12:30:12;;;;;;;1.73;1.45;;;35.30;28.30;;;;;;5092140;28;20031;-76
2021/06/26 12:32:39;;;;;;;1.80;1.70;;;35.80;26.10;;;;;;5091991;28;20024;-77
2021/06/26 12:35:08;;;;;;;1.70;1.48;;;36.40;33.20;;;;;;5091778;28;20055;-76
2021/06/26 12:37:38;;;;;;;1.57;1.40;;;36.10;29.80;;;;;;5092004;28;20024;-77
2021/06/26 12:40:06;;;;;;;3.30;1.87;;;36.80;30.80;;;;;;5091802;28;20437;-76
2021/06/26 12:42:35;;;;;;;1.90;1.80;;;37.60;31.70;;;;;;5091819;28;20039;-76
2021/06/26 12:45:01;;;;;;;1.73;1.63;;;37.90;27.00;;;;;;5091739;28;20024;-76
2021/06/26 12:47:26;;;;;;;1.67;1.58;;;38.30;30.00;;;;;;5091855;28;20539;-76